createdAt,value
2018-12-24T00:00:25.915Z,3.27
2018-12-24T00:02:54.310Z,3.40
2018-12-24T00:05:22.948Z,2.90
2018-12-24T00:07:51.334Z,3.00
2018-12-24T00:10:19.722Z,3.17
2018-12-24T00:12:48.391Z,3.20
2018-12-24T00:15:17.015Z,3.03
2018-12-24T00:17:45.765Z,3.00
2018-12-24T00:20:14.162Z,3.10
2018-12-24T00:22:42.777Z,2.73
2018-12-24T00:25:11.422Z,2.80
2018-12-24T00:27:39.811Z,2.97
2018-12-24T00:30:08.196Z,3.00
2018-12-24T00:32:36.594Z,2.83
2018-12-24T00:35:05.119Z,3.07
2018-12-24T00:37:33.500Z,3.00
2018-12-24T00:40:01.913Z,2.83
2018-12-24T00:42:30.299Z,2.67
2018-12-24T00:44:58.686Z,3.13
2018-12-24T00:47:27.339Z,3.10
2018-12-24T00:49:55.719Z,3.20
2018-12-24T00:52:24.396Z,2.97
2018-12-24T00:54:53.103Z,2.97
2018-12-24T00:57:21.489Z,2.90
2018-12-24T00:59:49.894Z,2.90
2018-12-24T01:02:18.283Z,3.07
2018-12-24T01:04:46.671Z,3.23
2018-12-24T01:07:15.401Z,3.13
2018-12-24T01:09:43.791Z,3.10
2018-12-24T01:12:12.210Z,2.83
2018-12-24T01:14:43.437Z,3.00
2018-12-24T01:17:11.828Z,2.83
2018-12-24T01:19:40.556Z,3.33
2018-12-24T01:22:08.959Z,2.80
2018-12-24T01:24:39.382Z,2.70
2018-12-24T01:27:08.000Z,2.83
2018-12-24T01:29:36.643Z,2.83
2018-12-24T01:32:05.341Z,2.70
2018-12-24T01:34:33.776Z,2.87
2018-12-24T01:37:02.185Z,3.03
2018-12-24T01:39:30.568Z,2.90
2018-12-24T01:41:58.953Z,2.83
2018-12-24T01:44:27.358Z,3.23
2018-12-24T01:46:55.870Z,2.60
2018-12-24T01:49:24.597Z,2.80
2018-12-24T01:51:53.238Z,2.70
2018-12-24T01:54:21.897Z,2.57
2018-12-24T01:56:50.640Z,2.77
2018-12-24T01:59:19.283Z,11.93
2018-12-24T02:01:48.012Z,3.40
2018-12-24T02:04:16.699Z,4.90
2018-12-24T02:06:45.086Z,3.23
2018-12-24T02:09:13.473Z,2.90
2018-12-24T02:11:41.880Z,2.93
2018-12-24T02:14:10.519Z,3.60
2018-12-24T02:16:39.203Z,7.30
2018-12-24T02:19:07.662Z,7.40
2018-12-24T02:21:36.041Z,3.03
2018-12-24T02:24:04.499Z,4.00
2018-12-24T02:26:33.231Z,12.23
2018-12-24T02:29:01.610Z,3.60
2018-12-24T02:31:30.060Z,3.07
2018-12-24T02:33:58.436Z,3.00
2018-12-24T02:36:27.172Z,2.80
2018-12-24T02:38:55.561Z,3.60
2018-12-24T02:41:23.939Z,3.83
2018-12-24T02:43:52.598Z,8.20
2018-12-24T02:46:21.362Z,3.30
2018-12-24T02:48:50.074Z,3.90
2018-12-24T02:51:18.585Z,5.10
2018-12-24T02:53:46.982Z,3.40
2018-12-24T02:56:15.374Z,7.30
2018-12-24T02:58:43.758Z,3.40
2018-12-24T03:01:12.156Z,3.30
2018-12-24T03:03:40.867Z,6.00
2018-12-24T03:06:09.543Z,3.67
2018-12-24T03:08:37.952Z,3.47
2018-12-24T03:11:06.334Z,3.80
2018-12-24T03:13:34.729Z,3.60
2018-12-24T03:16:03.109Z,3.50
2018-12-24T03:18:31.847Z,4.63
2018-12-24T03:21:00.228Z,4.23
2018-12-24T03:23:28.617Z,4.50
2018-12-24T03:25:57.292Z,3.77
2018-12-24T03:28:25.672Z,6.13
2018-12-24T03:30:54.309Z,4.10
2018-12-24T03:33:22.689Z,4.43
2018-12-24T03:35:51.438Z,4.03
2018-12-24T03:38:19.828Z,3.50
2018-12-24T03:40:48.211Z,3.83
2018-12-24T03:43:16.873Z,5.17
2018-12-24T03:45:45.246Z,4.23
2018-12-24T03:48:13.644Z,4.30
2018-12-24T03:50:42.308Z,3.70
2018-12-24T03:53:10.696Z,3.83
2018-12-24T03:55:39.100Z,5.50
2018-12-24T03:58:07.483Z,3.70
2018-12-24T04:00:35.948Z,4.30
2018-12-24T04:03:04.340Z,4.08
2018-12-24T04:05:33.092Z,3.52
2018-12-24T04:08:01.716Z,3.20
2018-12-24T04:10:30.360Z,3.40
2018-12-24T04:12:59.043Z,3.37
2018-12-24T04:15:27.731Z,3.70
2018-12-24T04:17:56.422Z,3.27
2018-12-24T04:20:25.109Z,4.45
2018-12-24T04:22:53.511Z,3.60
2018-12-24T04:25:21.903Z,4.35
2018-12-24T04:27:50.280Z,3.53
2018-12-24T04:30:18.691Z,3.77
2018-12-24T04:32:47.079Z,3.95
2018-12-24T04:35:15.503Z,4.08
2018-12-24T04:37:43.890Z,4.05
2018-12-24T04:40:12.269Z,4.53
2018-12-24T04:42:40.674Z,5.35
2018-12-24T04:45:09.068Z,5.22
2018-12-24T04:47:37.515Z,5.60
2018-12-24T04:50:06.060Z,5.60
2018-12-24T04:52:34.451Z,6.17
2018-12-24T04:55:02.853Z,6.60
2018-12-24T04:57:31.253Z,6.20
2018-12-24T04:59:59.653Z,6.95
2018-12-24T05:02:28.057Z,6.40
2018-12-24T05:04:56.446Z,6.65
2018-12-24T05:07:24.846Z,6.12
2018-12-24T05:09:53.235Z,7.28
2018-12-24T05:12:21.641Z,5.75
2018-12-24T05:14:50.049Z,5.33
2018-12-24T05:17:18.456Z,8.35
2018-12-24T05:19:47.113Z,3.60
2018-12-24T05:22:15.500Z,3.87
2018-12-24T05:24:44.179Z,3.70
2018-12-24T05:27:12.575Z,3.80
2018-12-24T05:29:40.975Z,3.30
2018-12-24T05:32:09.622Z,4.30
2018-12-24T05:34:38.033Z,4.45
2018-12-24T05:37:06.422Z,3.98
2018-12-24T05:39:35.065Z,4.00
2018-12-24T05:42:03.471Z,3.65
2018-12-24T05:44:32.133Z,3.55
2018-12-24T05:47:00.519Z,3.98
2018-12-24T05:49:28.924Z,3.80
2018-12-24T05:51:57.327Z,3.35
2018-12-24T05:54:25.977Z,3.47
2018-12-24T05:56:54.368Z,3.52
2018-12-24T05:59:22.775Z,6.47
2018-12-24T06:01:51.160Z,3.50
2018-12-24T06:04:19.547Z,3.65
2018-12-24T06:06:47.952Z,3.58
2018-12-24T06:09:16.357Z,3.60
2018-12-24T06:11:44.744Z,4.05
2018-12-24T06:14:13.131Z,3.62
2018-12-24T06:16:41.534Z,5.30
2018-12-24T06:19:09.918Z,4.62
2018-12-24T06:21:38.319Z,4.45
2018-12-24T06:24:07.013Z,4.37
2018-12-24T06:26:35.415Z,4.45
2018-12-24T06:29:03.806Z,5.08
2018-12-24T06:31:32.554Z,4.22
2018-12-24T06:34:00.959Z,4.70
2018-12-24T06:36:29.350Z,5.20
2018-12-24T06:38:57.753Z,4.45
2018-12-24T06:41:26.134Z,4.40
2018-12-24T06:43:54.520Z,5.10
2018-12-24T06:46:22.926Z,4.60
2018-12-24T06:48:51.379Z,4.42
2018-12-24T06:51:19.778Z,5.62
2018-12-24T06:53:48.474Z,5.60
2018-12-24T06:56:16.885Z,5.53
2018-12-24T06:58:45.276Z,5.78
2018-12-24T07:01:13.667Z,5.47
2018-12-24T07:03:42.069Z,6.03
2018-12-24T07:06:10.459Z,6.03
2018-12-24T07:08:39.158Z,5.53
2018-12-24T07:11:07.549Z,6.17
2018-12-24T07:13:35.953Z,7.10
2018-12-24T07:16:04.338Z,7.17
2018-12-24T07:18:32.723Z,6.78
2018-12-24T07:21:01.124Z,6.83
2018-12-24T07:23:29.515Z,6.80
2018-12-24T07:25:57.916Z,6.65
2018-12-24T07:28:26.305Z,7.15
2018-12-24T07:30:54.974Z,7.03
2018-12-24T07:33:23.665Z,6.53
2018-12-24T07:35:52.326Z,6.50
2018-12-24T07:38:21.033Z,7.45
2018-12-24T07:40:49.421Z,5.60
2018-12-24T07:43:17.828Z,6.70
2018-12-24T07:45:46.216Z,6.08
2018-12-24T07:48:14.975Z,5.45
2018-12-24T07:50:43.348Z,4.85
2018-12-24T07:53:11.736Z,4.60
2018-12-24T07:55:40.140Z,4.22
2018-12-24T07:58:08.608Z,4.75
2018-12-24T08:00:37.265Z,4.65
2018-12-24T08:03:05.653Z,4.45
2018-12-24T08:05:34.582Z,4.05
2018-12-24T08:08:02.971Z,4.90
2018-12-24T08:10:31.705Z,4.50
2018-12-24T08:13:00.389Z,4.65
2018-12-24T08:15:28.773Z,4.78
2018-12-24T08:17:57.166Z,4.55
2018-12-24T08:20:25.843Z,4.72
2018-12-24T08:22:54.514Z,4.75
2018-12-24T08:25:22.907Z,4.65
2018-12-24T08:27:51.580Z,5.08
2018-12-24T08:30:19.986Z,5.03
2018-12-24T08:32:48.428Z,4.85
2018-12-24T08:35:17.059Z,5.00
2018-12-24T08:37:45.808Z,5.22
2018-12-24T08:40:14.214Z,5.60
2018-12-24T08:42:42.875Z,4.83
2018-12-24T08:45:11.265Z,5.20
2018-12-24T08:47:39.662Z,6.15
2018-12-24T08:50:08.067Z,5.15
2018-12-24T08:52:36.812Z,5.50
2018-12-24T08:55:05.705Z,5.90
2018-12-24T08:57:34.104Z,7.20
2018-12-24T09:00:02.580Z,6.78
2018-12-24T09:02:30.972Z,7.62
2018-12-24T09:04:59.606Z,9.43
2018-12-24T09:07:27.996Z,8.43
2018-12-24T09:09:56.675Z,8.05
2018-12-24T09:12:25.069Z,8.60
2018-12-24T09:14:53.458Z,9.18
2018-12-24T09:17:21.859Z,8.95
2018-12-24T09:19:50.498Z,9.03
2018-12-24T09:22:18.903Z,8.45
2018-12-24T09:24:47.303Z,8.95
2018-12-24T09:27:15.702Z,10.55
2018-12-24T09:29:44.422Z,8.23
2018-12-24T09:32:13.118Z,11.05
2018-12-24T09:34:41.520Z,12.07
2018-12-24T09:37:09.913Z,12.80
2018-12-24T09:39:38.325Z,12.88
2018-12-24T09:42:06.717Z,13.32
2018-12-24T09:44:35.112Z,11.63
2018-12-24T09:47:03.529Z,13.32
2018-12-24T09:49:31.926Z,13.32
2018-12-24T09:52:00.334Z,14.87
2018-12-24T09:54:28.728Z,10.80
2018-12-24T09:56:57.415Z,10.43
2018-12-24T09:59:25.809Z,12.70
2018-12-24T10:01:54.477Z,11.00
2018-12-24T10:04:24.122Z,10.55
2018-12-24T10:06:52.771Z,9.43
2018-12-24T10:09:21.660Z,12.30
2018-12-24T10:11:50.061Z,10.70
2018-12-24T10:14:18.463Z,7.87
2018-12-24T10:16:46.847Z,8.05
2018-12-24T10:19:15.381Z,6.17
2018-12-24T10:21:43.784Z,6.00
2018-12-24T10:24:12.161Z,5.13
2018-12-24T10:26:40.554Z,4.90
2018-12-24T10:29:09.203Z,5.22
2018-12-24T10:31:37.610Z,5.47
2018-12-24T10:34:06.281Z,4.93
2018-12-24T10:36:34.660Z,5.50
2018-12-24T10:39:04.096Z,5.10
2018-12-24T10:41:32.835Z,5.58
2018-12-24T10:44:01.302Z,6.10
2018-12-24T10:46:29.688Z,6.95
2018-12-24T10:48:58.070Z,6.43
2018-12-24T10:51:26.759Z,8.53
2018-12-24T10:53:55.151Z,11.05
2018-12-24T10:56:23.544Z,11.90
2018-12-24T10:58:52.008Z,12.88
2018-12-24T11:01:20.652Z,14.67
2018-12-24T11:03:49.055Z,13.95
2018-12-24T11:06:17.463Z,15.83
2018-12-24T11:08:46.128Z,16.27
2018-12-24T11:11:14.814Z,19.42
2018-12-24T11:13:43.221Z,18.83
2018-12-24T11:16:11.620Z,13.80
2018-12-24T11:18:40.027Z,13.98
2018-12-24T11:21:08.741Z,11.90
2018-12-24T11:23:37.230Z,12.40
2018-12-24T11:26:05.610Z,16.37
2018-12-24T11:28:33.999Z,19.07
2018-12-24T11:31:02.659Z,13.67
2018-12-24T11:33:31.054Z,8.45
2018-12-24T11:35:59.436Z,10.97
2018-12-24T11:38:27.847Z,12.03
2018-12-24T11:40:56.590Z,13.20
2018-12-24T11:43:25.003Z,19.37
2018-12-24T11:45:53.664Z,18.77
2018-12-24T11:48:22.350Z,19.93
2018-12-24T11:50:50.803Z,20.30
2018-12-24T11:53:19.504Z,23.25
2018-12-24T11:55:47.922Z,22.70
2018-12-24T11:58:16.828Z,20.45
2018-12-24T12:00:45.665Z,31.75
2018-12-24T12:03:14.070Z,20.62
2018-12-24T12:05:42.729Z,22.32
2018-12-24T12:08:11.130Z,17.73
2018-12-24T12:10:39.524Z,18.57
2018-12-24T12:13:07.932Z,12.37
2018-12-24T12:15:42.559Z,8.70
2018-12-24T12:18:06.992Z,7.42
2018-12-24T12:20:35.377Z,7.58
2018-12-24T12:23:03.774Z,8.73
2018-12-24T12:25:32.523Z,8.63
2018-12-24T12:28:00.912Z,6.03
2018-12-24T12:30:29.319Z,7.50
2018-12-24T12:32:57.964Z,11.03
2018-12-24T12:35:26.384Z,7.67
2018-12-24T12:37:54.974Z,6.67
2018-12-24T12:40:23.333Z,9.45
2018-12-24T12:42:51.726Z,12.07
2018-12-24T12:45:20.128Z,7.90
2018-12-24T12:47:48.598Z,10.28
2018-12-24T12:50:17.331Z,9.78
2018-12-24T12:52:45.755Z,9.03
2018-12-24T12:55:14.175Z,10.10
2018-12-24T12:57:42.566Z,13.00
2018-12-24T13:00:11.272Z,16.27
2018-12-24T13:02:39.947Z,12.95
2018-12-24T13:05:08.632Z,14.63
2018-12-24T13:07:37.035Z,16.70
2018-12-24T13:10:06.199Z,15.25
2018-12-24T13:12:34.614Z,14.47
2018-12-24T13:15:03.013Z,17.50
2018-12-24T13:17:31.427Z,16.93
2018-12-24T13:20:00.345Z,12.58
2018-12-24T13:22:28.708Z,24.20
2018-12-24T13:24:57.164Z,16.30
2018-12-24T13:27:25.559Z,11.20
2018-12-24T13:29:53.969Z,10.10
2018-12-24T13:32:22.372Z,10.08
2018-12-24T13:34:50.748Z,11.60
2018-12-24T13:37:19.154Z,7.80
2018-12-24T13:39:47.874Z,6.28
2018-12-24T13:42:16.563Z,5.70
2018-12-24T13:44:44.961Z,7.47
2018-12-24T13:47:13.353Z,5.72
2018-12-24T13:49:41.757Z,6.92
2018-12-24T13:52:10.281Z,7.40
2018-12-24T13:54:38.968Z,6.42
2018-12-24T13:57:07.354Z,8.65
2018-12-24T13:59:35.750Z,9.35
2018-12-24T14:02:04.422Z,9.35
2018-12-24T14:04:33.099Z,8.83
2018-12-24T14:07:01.495Z,9.00
2018-12-24T14:09:29.891Z,7.03
2018-12-24T14:11:58.284Z,7.45
2018-12-24T14:14:26.677Z,9.40
2018-12-24T14:16:55.209Z,7.40
2018-12-24T14:19:23.884Z,12.10
2018-12-24T14:21:52.568Z,9.58
2018-12-24T14:24:20.960Z,7.80
2018-12-24T14:26:49.363Z,9.73
2018-12-24T14:29:17.759Z,12.10
2018-12-24T14:31:46.159Z,9.18
2018-12-24T14:34:15.492Z,10.23
2018-12-24T14:36:44.175Z,10.60
2018-12-24T14:39:12.563Z,8.13
2018-12-24T14:41:40.954Z,8.80
2018-12-24T14:44:09.359Z,7.90
2018-12-24T14:46:38.095Z,6.60
2018-12-24T14:49:06.488Z,7.50
2018-12-24T14:51:34.894Z,7.15
2018-12-24T14:54:03.354Z,7.50
2018-12-24T14:56:31.753Z,8.18
2018-12-24T14:59:00.148Z,8.13
2018-12-24T15:01:28.560Z,8.25
2018-12-24T15:03:57.172Z,8.27
2018-12-24T15:06:25.849Z,8.18
2018-12-24T15:08:54.262Z,12.28
2018-12-24T15:11:22.645Z,9.75
2018-12-24T15:13:51.049Z,11.65
2018-12-24T15:16:19.439Z,8.05
2018-12-24T15:18:48.151Z,9.65
2018-12-24T15:21:16.833Z,11.10
2018-12-24T15:23:45.520Z,10.25
2018-12-24T15:26:14.231Z,13.30
2018-12-24T15:28:42.631Z,13.13
2018-12-24T15:31:11.044Z,14.78
2018-12-24T15:33:39.690Z,17.90
2018-12-24T15:36:08.346Z,19.20
2018-12-24T15:38:36.749Z,16.15
2018-12-24T15:41:05.605Z,15.23
2018-12-24T15:43:34.017Z,15.35
2018-12-24T15:46:02.411Z,18.32
2018-12-24T15:48:30.817Z,18.65
2018-12-24T15:50:59.529Z,14.75
2018-12-24T15:53:28.023Z,22.40
2018-12-24T15:55:56.425Z,17.40
2018-12-24T15:58:25.073Z,17.75
2018-12-24T16:00:53.762Z,17.45
2018-12-24T16:03:22.411Z,16.27
2018-12-24T16:05:50.812Z,11.93
2018-12-24T16:08:19.508Z,12.40
2018-12-24T16:10:48.195Z,12.28
2018-12-24T16:13:16.587Z,12.93
2018-12-24T16:15:44.982Z,15.68
2018-12-24T16:18:13.745Z,15.68
2018-12-24T16:20:42.148Z,16.12
2018-12-24T16:23:10.558Z,18.82
2018-12-24T16:25:38.951Z,17.37
2018-12-24T16:28:07.671Z,17.67
2018-12-24T16:30:36.316Z,14.20
2018-12-24T16:33:05.041Z,16.48
2018-12-24T16:35:33.444Z,14.43
2018-12-24T16:38:01.847Z,16.52
2018-12-24T16:40:30.590Z,15.63
2018-12-24T16:42:58.988Z,15.75
2018-12-24T16:45:27.396Z,18.23
2018-12-24T16:47:56.133Z,20.10
2018-12-24T16:50:24.817Z,16.30
2018-12-24T16:52:53.227Z,18.67
2018-12-24T16:55:21.882Z,21.95
2018-12-24T16:57:50.287Z,16.52
2018-12-24T17:00:18.944Z,12.90
2018-12-24T17:02:47.362Z,20.27
2018-12-24T17:05:16.017Z,16.90
2018-12-24T17:07:44.411Z,17.12
2018-12-24T17:10:12.821Z,20.75
2018-12-24T17:12:41.216Z,21.23
2018-12-24T17:15:09.934Z,18.15
2018-12-24T17:17:38.324Z,19.00
2018-12-24T17:20:06.805Z,21.35
2018-12-24T17:22:35.206Z,17.37
2018-12-24T17:25:03.598Z,25.43
2018-12-24T17:27:32.252Z,22.50
2018-12-24T17:30:00.930Z,23.65
2018-12-24T17:32:29.609Z,23.38
2018-12-24T17:34:58.296Z,25.17
2018-12-24T17:37:26.980Z,24.80
2018-12-24T17:39:55.389Z,25.92
2018-12-24T17:42:23.782Z,25.77
2018-12-24T17:44:52.191Z,27.50
2018-12-24T17:47:20.910Z,36.20
2018-12-24T17:49:49.322Z,26.40
2018-12-24T17:52:17.720Z,30.30
2018-12-24T17:54:46.113Z,28.40
2018-12-24T17:57:14.828Z,27.85
2018-12-24T17:59:43.230Z,25.27
2018-12-24T18:02:11.633Z,28.85
2018-12-24T18:04:40.377Z,30.52
2018-12-24T18:07:09.060Z,28.10
2018-12-24T18:09:37.749Z,31.60
2018-12-24T18:12:06.151Z,32.53
2018-12-24T18:14:34.568Z,30.72
2018-12-24T18:17:02.962Z,32.60
2018-12-24T18:19:31.373Z,34.53
2018-12-24T18:21:59.769Z,31.05
2018-12-24T18:24:28.179Z,32.03
2018-12-24T18:26:56.576Z,34.95
2018-12-24T18:29:24.971Z,32.58
2018-12-24T18:31:53.384Z,33.85
2018-12-24T18:34:21.779Z,36.17
2018-12-24T18:36:50.423Z,32.15
2018-12-24T18:39:18.820Z,51.58
2018-12-24T18:41:47.489Z,36.93
2018-12-24T18:44:15.889Z,36.05
2018-12-24T18:46:44.283Z,32.40
2018-12-24T18:49:13.039Z,37.00
2018-12-24T18:51:41.431Z,42.08
2018-12-24T18:54:11.480Z,38.15
2018-12-24T18:56:39.873Z,33.02
2018-12-24T18:59:08.599Z,36.53
2018-12-24T19:01:37.807Z,30.62
2018-12-24T19:04:06.204Z,34.30
2018-12-24T19:06:34.615Z,33.20
2018-12-24T19:09:04.379Z,31.02
2018-12-24T19:11:32.774Z,32.73
2018-12-24T19:14:01.183Z,32.58
2018-12-24T19:16:29.652Z,28.62
2018-12-24T19:18:58.393Z,27.90
2018-12-24T19:21:26.789Z,35.48
2018-12-24T19:23:55.201Z,33.78
2018-12-24T19:26:29.886Z,31.42
2018-12-24T19:28:58.256Z,36.93
2018-12-24T19:31:26.653Z,37.45
2018-12-24T19:33:55.060Z,35.20
2018-12-24T19:36:23.813Z,32.30
2018-12-24T19:38:52.589Z,32.65
2018-12-24T19:41:20.994Z,33.85
2018-12-24T19:43:49.467Z,33.63
2018-12-24T19:46:17.871Z,33.42
2018-12-24T19:48:46.516Z,41.25
2018-12-24T19:51:14.924Z,46.85
2018-12-24T19:53:43.318Z,36.13
2018-12-24T19:56:11.712Z,32.75
2018-12-24T19:58:40.113Z,31.17
2018-12-24T20:01:08.577Z,34.98
2018-12-24T20:03:36.989Z,34.20
2018-12-24T20:06:05.383Z,34.15
2018-12-24T20:08:33.790Z,31.90
2018-12-24T20:11:02.210Z,35.75
2018-12-24T20:13:30.916Z,42.50
2018-12-24T20:15:59.327Z,30.30
2018-12-24T20:18:27.981Z,32.67
2018-12-24T20:20:56.665Z,33.13
2018-12-24T20:23:25.064Z,30.17
2018-12-24T20:25:53.736Z,33.67
2018-12-24T20:28:22.139Z,30.68
2018-12-24T20:30:50.798Z,30.08
2018-12-24T20:33:19.206Z,31.10
2018-12-24T20:35:47.602Z,34.75
2018-12-24T20:38:16.150Z,31.68
2018-12-24T20:40:44.825Z,26.55
2018-12-24T20:43:13.221Z,28.75
2018-12-24T20:45:41.889Z,34.40
2018-12-24T20:48:10.283Z,27.70
2018-12-24T20:50:38.689Z,25.80
2018-12-24T20:53:07.077Z,22.10
2018-12-24T20:55:35.488Z,25.27
2018-12-24T20:58:03.884Z,24.47
2018-12-24T21:00:32.275Z,23.85
2018-12-24T21:03:00.950Z,25.27
2018-12-24T21:05:29.341Z,26.27
2018-12-24T21:07:57.756Z,29.23
2018-12-24T21:10:26.493Z,28.98
2018-12-24T21:12:54.888Z,26.45
2018-12-24T21:15:23.299Z,28.32
2018-12-24T21:17:51.687Z,26.73
2018-12-24T21:20:20.415Z,25.80
2018-12-24T21:22:48.813Z,23.92
2018-12-24T21:25:17.205Z,26.02
2018-12-24T21:27:45.609Z,24.90
2018-12-24T21:30:14.002Z,24.80
2018-12-24T21:32:42.723Z,22.87
2018-12-24T21:35:11.125Z,21.73
2018-12-24T21:37:39.518Z,22.22
2018-12-24T21:40:08.265Z,25.60
2018-12-24T21:42:36.657Z,30.40
2018-12-24T21:45:05.203Z,24.75
2018-12-24T21:47:33.597Z,23.35
2018-12-24T21:50:01.998Z,23.52
2018-12-24T21:52:30.631Z,22.73
2018-12-24T21:54:59.027Z,30.43
2018-12-24T21:57:27.736Z,24.90
2018-12-24T21:59:56.423Z,24.65
2018-12-24T22:02:25.108Z,25.00
2018-12-24T22:04:53.798Z,28.47
2018-12-24T22:07:22.191Z,27.55
2018-12-24T22:09:50.595Z,32.23
2018-12-24T22:12:19.243Z,26.68
2018-12-24T22:14:47.925Z,32.13
2018-12-24T22:17:16.320Z,30.65
2018-12-24T22:19:44.725Z,26.48
2018-12-24T22:22:13.113Z,26.62
2018-12-24T22:24:41.769Z,23.67
2018-12-24T22:27:10.430Z,24.00
2018-12-24T22:29:38.854Z,24.07
2018-12-24T22:32:07.246Z,23.15
2018-12-24T22:34:35.651Z,24.07
2018-12-24T22:37:04.081Z,27.27
2018-12-24T22:39:32.480Z,27.77
2018-12-24T22:42:00.868Z,29.02
2018-12-24T22:44:29.275Z,31.50
2018-12-24T22:46:57.667Z,27.62
2018-12-24T22:49:26.328Z,27.55
2018-12-24T22:51:54.713Z,29.10
2018-12-24T22:54:23.358Z,32.75
2018-12-24T22:56:51.766Z,24.95
2018-12-24T22:59:20.408Z,26.90
2018-12-24T23:01:48.804Z,26.02
2018-12-24T23:04:17.218Z,29.55
2018-12-24T23:06:45.886Z,25.32
2018-12-24T23:09:14.283Z,33.50
2018-12-24T23:11:43.015Z,28.05
2018-12-24T23:14:11.663Z,27.20
2018-12-24T23:16:40.315Z,28.70
2018-12-24T23:19:08.748Z,31.23
2018-12-24T23:21:37.150Z,28.32
2018-12-24T23:24:05.586Z,29.45
2018-12-24T23:26:34.201Z,30.52
2018-12-24T23:29:02.601Z,30.57
2018-12-24T23:31:31.257Z,30.10
2018-12-24T23:33:59.903Z,30.97
2018-12-24T23:36:28.329Z,29.27
2018-12-24T23:38:56.725Z,29.72
2018-12-24T23:41:25.117Z,26.07
2018-12-24T23:43:53.593Z,24.55
2018-12-24T23:46:22.260Z,27.00
2018-12-24T23:48:57.668Z,28.98
2018-12-24T23:51:20.803Z,26.15
2018-12-24T23:53:49.213Z,28.83
2018-12-24T23:56:17.652Z,26.48
2018-12-24T23:58:46.041Z,24.87
